sensor_id;sensor_type;location;lat;lon;timestamp;pressure;altitude;pressure_sealevel;temperature;humidity
68179;BME280;69812;42.632;23.440;2023-12-14T00:00:33;94161.16;;;1.72;100.00
68179;BME280;69812;42.632;23.440;2023-12-14T00:02:59;94153.69;;;1.44;100.00
68179;BME280;69812;42.632;23.440;2023-12-14T00:05:24;94157.94;;;1.31;100.00
68179;BME280;69812;42.632;23.440;2023-12-14T00:07:49;94147.75;;;1.46;100.00
68179;BME280;69812;42.632;23.440;2023-12-14T00:10:15;94150.75;;;1.63;100.00
68179;BME280;69812;42.632;23.440;2023-12-14T00:12:43;94145.00;;;1.49;100.00
68179;BME280;69812;42.632;23.440;2023-12-14T00:15:09;94144.78;;;1.52;100.00
68179;BME280;69812;42.632;23.440;2023-12-14T00:17:36;94147.22;;;1.40;100.00
68179;BME280;69812;42.632;23.440;2023-12-14T00:20:02;94146.72;;;1.35;100.00
68179;BME280;69812;42.632;23.440;2023-12-14T00:22:28;94168.56;;;1.36;100.00
68179;BME280;69812;42.632;23.440;2023-12-14T00:24:53;94131.84;;;1.43;100.00
68179;BME280;69812;42.632;23.440;2023-12-14T00:27:19;94171.47;;;1.43;100.00
68179;BME280;69812;42.632;23.440;2023-12-14T00:29:44;94146.19;;;1.43;100.00
68179;BME280;69812;42.632;23.440;2023-12-14T00:32:10;94146.41;;;1.53;100.00
68179;BME280;69812;42.632;23.440;2023-12-14T00:34:35;94152.59;;;1.49;100.00
68179;BME280;69812;42.632;23.440;2023-12-14T00:37:01;94138.50;;;1.57;100.00
68179;BME280;69812;42.632;23.440;2023-12-14T00:39:27;94138.94;;;1.38;100.00
68179;BME280;69812;42.632;23.440;2023-12-14T00:41:52;94136.22;;;1.41;100.00
68179;BME280;69812;42.632;23.440;2023-12-14T00:44:17;94124.34;;;1.55;100.00
68179;BME280;69812;42.632;23.440;2023-12-14T00:46:43;94154.41;;;1.47;100.00
68179;BME280;69812;42.632;23.440;2023-12-14T00:49:08;94167.44;;;1.40;100.00
68179;BME280;69812;42.632;23.440;2023-12-14T00:51:33;94140.88;;;1.35;100.00
68179;BME280;69812;42.632;23.440;2023-12-14T00:54:03;94139.63;;;1.28;100.00
68179;BME280;69812;42.632;23.440;2023-12-14T00:56:28;94150.28;;;1.46;100.00
68179;BME280;69812;42.632;23.440;2023-12-14T00:58:53;94147.53;;;1.49;100.00
68179;BME280;69812;42.632;23.440;2023-12-14T01:01:19;94114.38;;;1.77;100.00
68179;BME280;69812;42.632;23.440;2023-12-14T01:03:44;94120.91;;;1.56;100.00
68179;BME280;69812;42.632;23.440;2023-12-14T01:06:10;94141.13;;;1.56;100.00
68179;BME280;69812;42.632;23.440;2023-12-14T01:08:35;94150.13;;;1.60;100.00
68179;BME280;69812;42.632;23.440;2023-12-14T01:11:00;94157.16;;;1.43;100.00
68179;BME280;69812;42.632;23.440;2023-12-14T01:13:26;94124.34;;;1.55;100.00
68179;BME280;69812;42.632;23.440;2023-12-14T01:15:51;94142.16;;;1.53;100.00
68179;BME280;69812;42.632;23.440;2023-12-14T01:18:17;94132.25;;;1.37;100.00
68179;BME280;69812;42.632;23.440;2023-12-14T01:20:43;94160.38;;;1.46;100.00
68179;BME280;69812;42.632;23.440;2023-12-14T01:23:08;94139.03;;;1.50;100.00
68179;BME280;69812;42.632;23.440;2023-12-14T01:25:35;94099.88;;;1.42;100.00
68179;BME280;69812;42.632;23.440;2023-12-14T01:28:00;94163.41;;;1.38;100.00
68179;BME280;69812;42.632;23.440;2023-12-14T01:30:25;94142.69;;;1.20;100.00
68179;BME280;69812;42.632;23.440;2023-12-14T01:32:51;94136.69;;;1.08;100.00
68179;BME280;69812;42.632;23.440;2023-12-14T01:35:16;94156.22;;;1.06;100.00
68179;BME280;69812;42.632;23.440;2023-12-14T01:37:44;94162.91;;;1.07;100.00
68179;BME280;69812;42.632;23.440;2023-12-14T01:40:09;94153.81;;;1.05;100.00
68179;BME280;69812;42.632;23.440;2023-12-14T01:42:35;94140.34;;;0.91;100.00
68179;BME280;69812;42.632;23.440;2023-12-14T01:45:00;94122.25;;;0.97;100.00
68179;BME280;69812;42.632;23.440;2023-12-14T01:47:29;94138.72;;;0.90;100.00
68179;BME280;69812;42.632;23.440;2023-12-14T01:49:56;94127.19;;;0.99;100.00
68179;BME280;69812;42.632;23.440;2023-12-14T01:52:24;94159.56;;;0.94;100.00
68179;BME280;69812;42.632;23.440;2023-12-14T01:54:50;94149.00;;;0.74;100.00
68179;BME280;69812;42.632;23.440;2023-12-14T01:57:17;94133.81;;;0.61;100.00
68179;BME280;69812;42.632;23.440;2023-12-14T01:59:43;94155.16;;;0.70;100.00
68179;BME280;69812;42.632;23.440;2023-12-14T02:02:08;94114.78;;;1.09;100.00
68179;BME280;69812;42.632;23.440;2023-12-14T02:04:33;94133.78;;;1.01;100.00
68179;BME280;69812;42.632;23.440;2023-12-14T02:06:59;94146.22;;;1.05;100.00
68179;BME280;69812;42.632;23.440;2023-12-14T02:09:26;94140.03;;;0.83;100.00
68179;BME280;69812;42.632;23.440;2023-12-14T02:11:52;94144.28;;;0.82;100.00
68179;BME280;69812;42.632;23.440;2023-12-14T02:14:17;94126.69;;;0.81;100.00
68179;BME280;69812;42.632;23.440;2023-12-14T02:16:42;94128.69;;;0.89;100.00
68179;BME280;69812;42.632;23.440;2023-12-14T02:19:08;94107.88;;;0.72;100.00
68179;BME280;69812;42.632;23.440;2023-12-14T02:21:33;94116.66;;;0.67;100.00
68179;BME280;69812;42.632;23.440;2023-12-14T02:23:59;94083.22;;;1.01;100.00
68179;BME280;69812;42.632;23.440;2023-12-14T02:26:24;94113.47;;;1.03;100.00
68179;BME280;69812;42.632;23.440;2023-12-14T02:28:49;94100.81;;;1.03;100.00
68179;BME280;69812;42.632;23.440;2023-12-14T02:31:15;94107.78;;;1.25;100.00
68179;BME280;69812;42.632;23.440;2023-12-14T02:33:40;94087.78;;;1.22;100.00
68179;BME280;69812;42.632;23.440;2023-12-14T02:36:06;94105.66;;;1.32;100.00
68179;BME280;69812;42.632;23.440;2023-12-14T02:38:31;94078.28;;;1.13;100.00
68179;BME280;69812;42.632;23.440;2023-12-14T02:40:57;94137.31;;;1.12;100.00
68179;BME280;69812;42.632;23.440;2023-12-14T02:43:22;94075.16;;;1.09;100.00
68179;BME280;69812;42.632;23.440;2023-12-14T02:45:48;94114.19;;;1.18;100.00
68179;BME280;69812;42.632;23.440;2023-12-14T02:48:14;94089.00;;;1.29;100.00
68179;BME280;69812;42.632;23.440;2023-12-14T02:50:39;94118.22;;;1.20;100.00
68179;BME280;69812;42.632;23.440;2023-12-14T02:53:05;94117.72;;;0.90;100.00
68179;BME280;69812;42.632;23.440;2023-12-14T02:55:30;94118.91;;;0.84;100.00
68179;BME280;69812;42.632;23.440;2023-12-14T02:57:58;94111.94;;;0.75;100.00
68179;BME280;69812;42.632;23.440;2023-12-14T03:00:23;94111.13;;;1.13;100.00
68179;BME280;69812;42.632;23.440;2023-12-14T03:02:49;94133.75;;;0.89;100.00
68179;BME280;69812;42.632;23.440;2023-12-14T03:05:14;94117.41;;;0.94;100.00
68179;BME280;69812;42.632;23.440;2023-12-14T03:07:40;94133.47;;;1.06;100.00
68179;BME280;69812;42.632;23.440;2023-12-14T03:10:06;94093.88;;;1.19;100.00
68179;BME280;69812;42.632;23.440;2023-12-14T03:12:32;94136.31;;;1.27;100.00
68179;BME280;69812;42.632;23.440;2023-12-14T03:14:57;94089.91;;;1.15;100.00
68179;BME280;69812;42.632;23.440;2023-12-14T03:17:23;94112.53;;;1.17;100.00
68179;BME280;69812;42.632;23.440;2023-12-14T03:19:48;94100.28;;;1.36;100.00
68179;BME280;69812;42.632;23.440;2023-12-14T03:22:13;94088.19;;;1.29;100.00
68179;BME280;69812;42.632;23.440;2023-12-14T03:24:39;94083.44;;;1.24;100.00
68179;BME280;69812;42.632;23.440;2023-12-14T03:27:05;94119.63;;;1.37;100.00
68179;BME280;69812;42.632;23.440;2023-12-14T03:29:30;94082.72;;;1.48;100.00
68179;BME280;69812;42.632;23.440;2023-12-14T03:31:56;94100.47;;;1.59;100.00
68179;BME280;69812;42.632;23.440;2023-12-14T03:34:22;94086.31;;;1.56;100.00
68179;BME280;69812;42.632;23.440;2023-12-14T03:36:48;94090.88;;;1.51;100.00
68179;BME280;69812;42.632;23.440;2023-12-14T03:39:13;94098.59;;;1.50;100.00
68179;BME280;69812;42.632;23.440;2023-12-14T03:41:42;94087.63;;;1.62;100.00
68179;BME280;69812;42.632;23.440;2023-12-14T03:44:07;94074.97;;;1.62;100.00
68179;BME280;69812;42.632;23.440;2023-12-14T03:46:33;94080.59;;;1.78;100.00
68179;BME280;69812;42.632;23.440;2023-12-14T03:48:59;94075.19;;;1.59;100.00
68179;BME280;69812;42.632;23.440;2023-12-14T03:51:25;94068.31;;;1.61;100.00
68179;BME280;69812;42.632;23.440;2023-12-14T03:53:50;94073.56;;;1.58;100.00
68179;BME280;69812;42.632;23.440;2023-12-14T03:56:15;94067.03;;;1.42;100.00
68179;BME280;69812;42.632;23.440;2023-12-14T03:58:41;94066.81;;;1.46;100.00
68179;BME280;69812;42.632;23.440;2023-12-14T04:01:06;94038.13;;;1.95;100.00
68179;BME280;69812;42.632;23.440;2023-12-14T04:03:32;94074.41;;;1.82;100.00
68179;BME280;69812;42.632;23.440;2023-12-14T04:05:57;94084.78;;;1.54;100.00
68179;BME280;69812;42.632;23.440;2023-12-14T04:08:22;94062.88;;;1.78;100.00
68179;BME280;69812;42.632;23.440;2023-12-14T04:10:48;94080.63;;;1.66;100.00
68179;BME280;69812;42.632;23.440;2023-12-14T04:13:13;94082.88;;;1.57;100.00
68179;BME280;69812;42.632;23.440;2023-12-14T04:15:39;94084.31;;;1.49;100.00
68179;BME280;69812;42.632;23.440;2023-12-14T04:18:07;94083.13;;;1.41;100.00
68179;BME280;69812;42.632;23.440;2023-12-14T04:20:33;94097.06;;;1.34;100.00
68179;BME280;69812;42.632;23.440;2023-12-14T04:22:59;94083.44;;;1.37;100.00
68179;BME280;69812;42.632;23.440;2023-12-14T04:25:24;94101.41;;;1.32;100.00
68179;BME280;69812;42.632;23.440;2023-12-14T04:27:50;94106.78;;;1.28;100.00
68179;BME280;69812;42.632;23.440;2023-12-14T04:30:15;94087.88;;;1.20;100.00
68179;BME280;69812;42.632;23.440;2023-12-14T04:32:41;94099.41;;;1.37;100.00
68179;BME280;69812;42.632;23.440;2023-12-14T04:35:06;94087.19;;;1.68;100.00
68179;BME280;69812;42.632;23.440;2023-12-14T04:37:32;94093.41;;;1.51;100.00
68179;BME280;69812;42.632;23.440;2023-12-14T04:39:58;94079.38;;;1.71;100.00
68179;BME280;69812;42.632;23.440;2023-12-14T04:42:23;94107.34;;;1.57;100.00
68179;BME280;69812;42.632;23.440;2023-12-14T04:44:48;94093.53;;;1.37;100.00
68179;BME280;69812;42.632;23.440;2023-12-14T04:47:14;94091.03;;;1.24;100.00
68179;BME280;69812;42.632;23.440;2023-12-14T04:49:39;94084.47;;;1.21;100.00
68179;BME280;69812;42.632;23.440;2023-12-14T04:52:05;94079.19;;;1.25;100.00
68179;BME280;69812;42.632;23.440;2023-12-14T04:54:31;94076.44;;;1.28;100.00
68179;BME280;69812;42.632;23.440;2023-12-14T04:56:56;94082.34;;;1.28;100.00
68179;BME280;69812;42.632;23.440;2023-12-14T04:59:22;94118.84;;;1.24;100.00
68179;BME280;69812;42.632;23.440;2023-12-14T05:01:47;94090.81;;;1.27;100.00
68179;BME280;69812;42.632;23.440;2023-12-14T05:04:13;94118.81;;;1.37;100.00
68179;BME280;69812;42.632;23.440;2023-12-14T05:06:38;94091.59;;;1.40;100.00
68179;BME280;69812;42.632;23.440;2023-12-14T05:09:04;94096.56;;;1.29;100.00
68179;BME280;69812;42.632;23.440;2023-12-14T05:11:30;94090.63;;;1.30;100.00
68179;BME280;69812;42.632;23.440;2023-12-14T05:13:55;94083.44;;;1.11;100.00
68179;BME280;69812;42.632;23.440;2023-12-14T05:16:20;94091.63;;;1.15;100.00
68179;BME280;69812;42.632;23.440;2023-12-14T05:18:46;94081.41;;;1.03;100.00
68179;BME280;69812;42.632;23.440;2023-12-14T05:21:17;94078.00;;;0.92;100.00
68179;BME280;69812;42.632;23.440;2023-12-14T05:23:43;94085.47;;;0.80;100.00
68179;BME280;69812;42.632;23.440;2023-12-14T05:26:08;94074.44;;;0.81;100.00
68179;BME280;69812;42.632;23.440;2023-12-14T05:28:33;94088.00;;;0.80;100.00
68179;BME280;69812;42.632;23.440;2023-12-14T05:31:00;94069.00;;;0.75;100.00
68179;BME280;69812;42.632;23.440;2023-12-14T05:33:25;94089.19;;;0.75;100.00
68179;BME280;69812;42.632;23.440;2023-12-14T05:35:51;94086.38;;;0.79;100.00
68179;BME280;69812;42.632;23.440;2023-12-14T05:38:16;94103.03;;;0.82;100.00
68179;BME280;69812;42.632;23.440;2023-12-14T05:40:42;94111.72;;;0.91;100.00
68179;BME280;69812;42.632;23.440;2023-12-14T05:43:07;94112.84;;;0.74;100.00
68179;BME280;69812;42.632;23.440;2023-12-14T05:45:33;94105.09;;;1.02;100.00
68179;BME280;69812;42.632;23.440;2023-12-14T05:47:58;94126.41;;;0.98;100.00
68179;BME280;69812;42.632;23.440;2023-12-14T05:50:24;94094.34;;;0.73;100.00
68179;BME280;69812;42.632;23.440;2023-12-14T05:52:49;94114.44;;;0.75;100.00
68179;BME280;69812;42.632;23.440;2023-12-14T05:55:15;94135.13;;;0.67;100.00
68179;BME280;69812;42.632;23.440;2023-12-14T05:57:46;94108.19;;;0.68;100.00
68179;BME280;69812;42.632;23.440;2023-12-14T06:00:13;94119.50;;;0.75;100.00
68179;BME280;69812;42.632;23.440;2023-12-14T06:02:38;94103.44;;;0.76;100.00
68179;BME280;69812;42.632;23.440;2023-12-14T06:05:04;94138.22;;;0.85;100.00
68179;BME280;69812;42.632;23.440;2023-12-14T06:07:30;94110.31;;;0.87;100.00
68179;BME280;69812;42.632;23.440;2023-12-14T06:09:55;94117.47;;;0.67;100.00
68179;BME280;69812;42.632;23.440;2023-12-14T06:12:20;94117.47;;;0.67;100.00
68179;BME280;69812;42.632;23.440;2023-12-14T06:14:46;94128.81;;;0.74;100.00
68179;BME280;69812;42.632;23.440;2023-12-14T06:17:11;94126.69;;;0.81;100.00
68179;BME280;69812;42.632;23.440;2023-12-14T06:19:36;94140.03;;;0.83;100.00
68179;BME280;69812;42.632;23.440;2023-12-14T06:22:05;94147.09;;;0.91;100.00
68179;BME280;69812;42.632;23.440;2023-12-14T06:24:30;94156.00;;;0.96;100.00
68179;BME280;69812;42.632;23.440;2023-12-14T06:26:55;94160.06;;;1.12;100.00
68179;BME280;69812;42.632;23.440;2023-12-14T06:29:21;94152.59;;;1.36;100.00
68179;BME280;69812;42.632;23.440;2023-12-14T06:31:50;94149.66;;;1.29;100.00
68179;BME280;69812;42.632;23.440;2023-12-14T06:34:16;94175.53;;;1.20;100.00
68179;BME280;69812;42.632;23.440;2023-12-14T06:36:42;94173.34;;;1.28;100.00
68179;BME280;69812;42.632;23.440;2023-12-14T06:39:08;94158.97;;;1.29;100.00
68179;BME280;69812;42.632;23.440;2023-12-14T06:41:34;94160.56;;;1.68;100.00
68179;BME280;69812;42.632;23.440;2023-12-14T06:44:00;94166.94;;;1.48;100.00
68179;BME280;69812;42.632;23.440;2023-12-14T06:46:25;94164.03;;;1.54;100.00
68179;BME280;69812;42.632;23.440;2023-12-14T06:48:50;94170.88;;;1.65;100.00
68179;BME280;69812;42.632;23.440;2023-12-14T06:51:16;94170.16;;;1.76;100.00
68179;BME280;69812;42.632;23.440;2023-12-14T06:53:43;94147.88;;;1.81;100.00
68179;BME280;69812;42.632;23.440;2023-12-14T06:56:09;94171.34;;;1.96;100.00
68179;BME280;69812;42.632;23.440;2023-12-14T06:58:37;94197.09;;;2.14;100.00
68179;BME280;69812;42.632;23.440;2023-12-14T07:01:02;94178.66;;;2.49;99.84
68179;BME280;69812;42.632;23.440;2023-12-14T07:03:27;94172.50;;;2.40;99.23
68179;BME280;69812;42.632;23.440;2023-12-14T07:05:53;94173.97;;;2.55;99.67
68179;BME280;69812;42.632;23.440;2023-12-14T07:08:18;94179.78;;;2.68;98.81
68179;BME280;69812;42.632;23.440;2023-12-14T07:10:44;94165.16;;;2.72;98.78
68179;BME280;69812;42.632;23.440;2023-12-14T07:13:09;94183.06;;;3.17;97.55
68179;BME280;69812;42.632;23.440;2023-12-14T07:15:35;94172.00;;;3.29;97.82
68179;BME280;69812;42.632;23.440;2023-12-14T07:18:00;94177.22;;;3.62;97.25
68179;BME280;69812;42.632;23.440;2023-12-14T07:20:26;94158.78;;;3.71;96.26
68179;BME280;69812;42.632;23.440;2023-12-14T07:22:51;94189.94;;;3.96;95.45
68179;BME280;69812;42.632;23.440;2023-12-14T07:25:16;94164.97;;;4.23;93.47
68179;BME280;69812;42.632;23.440;2023-12-14T07:27:42;94176.50;;;4.27;91.74
68179;BME280;69812;42.632;23.440;2023-12-14T07:30:09;94213.66;;;4.40;90.91
68179;BME280;69812;42.632;23.440;2023-12-14T07:32:34;94185.63;;;4.30;91.00
68179;BME280;69812;42.632;23.440;2023-12-14T07:35:00;94206.81;;;4.63;89.42
68179;BME280;69812;42.632;23.440;2023-12-14T07:37:25;94204.31;;;5.05;88.38
68179;BME280;69812;42.632;23.440;2023-12-14T07:39:51;94200.88;;;5.06;88.62
68179;BME280;69812;42.632;23.440;2023-12-14T07:42:17;94202.06;;;5.23;88.83
68179;BME280;69812;42.632;23.440;2023-12-14T07:44:45;94212.59;;;5.39;88.54
68179;BME280;69812;42.632;23.440;2023-12-14T07:47:10;94206.47;;;5.72;87.03
68179;BME280;69812;42.632;23.440;2023-12-14T07:49:35;94199.78;;;5.92;84.71
68179;BME280;69812;42.632;23.440;2023-12-14T07:52:01;94199.88;;;5.91;84.87
68179;BME280;69812;42.632;23.440;2023-12-14T07:54:26;94184.00;;;5.99;83.24
68179;BME280;69812;42.632;23.440;2023-12-14T07:56:52;94206.97;;;6.08;81.70
68179;BME280;69812;42.632;23.440;2023-12-14T07:59:17;94211.59;;;6.34;82.57
68179;BME280;69812;42.632;23.440;2023-12-14T08:01:42;94186.19;;;6.73;79.97
68179;BME280;69812;42.632;23.440;2023-12-14T08:04:08;94208.31;;;6.53;80.15
68179;BME280;69812;42.632;23.440;2023-12-14T08:06:35;94219.47;;;6.71;81.66
68179;BME280;69812;42.632;23.440;2023-12-14T08:09:00;94210.63;;;6.95;81.32
68179;BME280;69812;42.632;23.440;2023-12-14T08:11:27;94224.72;;;7.18;80.41
68179;BME280;69812;42.632;23.440;2023-12-14T08:13:52;94213.16;;;7.24;78.40
68179;BME280;69812;42.632;23.440;2023-12-14T08:16:17;94229.53;;;7.60;78.36
68179;BME280;69812;42.632;23.440;2023-12-14T08:18:43;94202.16;;;7.90;75.99
68179;BME280;69812;42.632;23.440;2023-12-14T08:21:13;94216.28;;;7.94;73.79
68179;BME280;69812;42.632;23.440;2023-12-14T08:23:39;94210.66;;;8.18;73.95
68179;BME280;69812;42.632;23.440;2023-12-14T08:26:04;94204.66;;;8.37;73.00
68179;BME280;69812;42.632;23.440;2023-12-14T08:28:30;94208.69;;;8.40;71.00
68179;BME280;69812;42.632;23.440;2023-12-14T08:30:55;94203.22;;;8.25;70.37
68179;BME280;69812;42.632;23.440;2023-12-14T08:33:23;94242.25;;;8.27;70.84
68179;BME280;69812;42.632;23.440;2023-12-14T08:35:49;94208.28;;;8.35;70.18
68179;BME280;69812;42.632;23.440;2023-12-14T08:38:15;94203.84;;;8.09;70.58
68179;BME280;69812;42.632;23.440;2023-12-14T08:40:41;94203.47;;;8.32;70.26
68179;BME280;69812;42.632;23.440;2023-12-14T08:43:07;94219.41;;;8.53;70.74
68179;BME280;69812;42.632;23.440;2023-12-14T08:45:32;94212.06;;;8.86;70.79
68179;BME280;69812;42.632;23.440;2023-12-14T08:47:58;94222.38;;;9.12;68.87
68179;BME280;69812;42.632;23.440;2023-12-14T08:50:23;94211.41;;;9.38;67.52
68179;BME280;69812;42.632;23.440;2023-12-14T08:52:51;94206.25;;;9.56;66.22
68179;BME280;69812;42.632;23.440;2023-12-14T08:55:17;94211.97;;;9.76;66.33
68179;BME280;69812;42.632;23.440;2023-12-14T08:57:43;94209.53;;;9.92;63.79
68179;BME280;69812;42.632;23.440;2023-12-14T09:00:09;94242.69;;;9.94;64.77
68179;BME280;69812;42.632;23.440;2023-12-14T09:02:35;94217.13;;;10.10;64.29
68179;BME280;69812;42.632;23.440;2023-12-14T09:05:00;94230.59;;;10.30;63.54
68179;BME280;69812;42.632;23.440;2023-12-14T09:07:26;94203.25;;;10.55;61.40
68179;BME280;69812;42.632;23.440;2023-12-14T09:09:51;94219.09;;;10.16;62.30
68179;BME280;69812;42.632;23.440;2023-12-14T09:12:17;94224.34;;;10.41;62.61
68179;BME280;69812;42.632;23.440;2023-12-14T09:14:42;94230.53;;;10.64;62.38
68179;BME280;69812;42.632;23.440;2023-12-14T09:17:07;94229.34;;;10.42;61.77
68179;BME280;69812;42.632;23.440;2023-12-14T09:19:33;94201.94;;;10.51;61.65
68179;BME280;69812;42.632;23.440;2023-12-14T09:21:58;94193.69;;;10.74;60.90
68179;BME280;69812;42.632;23.440;2023-12-14T09:24:25;94196.63;;;11.12;60.71
68179;BME280;69812;42.632;23.440;2023-12-14T09:26:51;94203.97;;;10.74;60.63
68179;BME280;69812;42.632;23.440;2023-12-14T09:29:16;94189.69;;;10.79;62.47
68179;BME280;69812;42.632;23.440;2023-12-14T09:31:42;94188.44;;;11.16;61.73
68179;BME280;69812;42.632;23.440;2023-12-14T09:34:09;94188.44;;;11.49;58.77
68179;BME280;69812;42.632;23.440;2023-12-14T09:36:35;94201.31;;;11.41;59.28
68179;BME280;69812;42.632;23.440;2023-12-14T09:39:00;94205.78;;;11.71;59.81
68179;BME280;69812;42.632;23.440;2023-12-14T09:41:26;94205.75;;;11.96;58.85
68179;BME280;69812;42.632;23.440;2023-12-14T09:43:52;94214.44;;;11.70;59.29
68179;BME280;69812;42.632;23.440;2023-12-14T09:46:18;94218.41;;;12.14;58.02
68179;BME280;69812;42.632;23.440;2023-12-14T09:48:44;94200.88;;;12.26;57.24
68179;BME280;69812;42.632;23.440;2023-12-14T09:51:11;94207.84;;;12.01;57.35
68179;BME280;69812;42.632;23.440;2023-12-14T09:53:37;94215.88;;;11.73;59.18
68179;BME280;69812;42.632;23.440;2023-12-14T09:56:02;94212.03;;;12.02;56.86
68179;BME280;69812;42.632;23.440;2023-12-14T09:58:31;94218.88;;;12.18;56.19
68179;BME280;69812;42.632;23.440;2023-12-14T10:00:57;94212.34;;;12.46;56.49
68179;BME280;69812;42.632;23.440;2023-12-14T10:03:27;94219.69;;;12.58;55.15
68179;BME280;69812;42.632;23.440;2023-12-14T10:05:57;94233.91;;;12.45;56.29
68179;BME280;69812;42.632;23.440;2023-12-14T10:08:23;94211.22;;;12.49;55.58
68179;BME280;69812;42.632;23.440;2023-12-14T10:10:51;94226.25;;;12.21;56.20
68179;BME280;69812;42.632;23.440;2023-12-14T10:13:18;94230.53;;;11.97;56.34
68179;BME280;69812;42.632;23.440;2023-12-14T10:15:45;94229.16;;;12.34;55.28
68179;BME280;69812;42.632;23.440;2023-12-14T10:18:14;94220.91;;;12.39;54.97
68179;BME280;69812;42.632;23.440;2023-12-14T10:20:42;94225.00;;;12.17;56.20
68179;BME280;69812;42.632;23.440;2023-12-14T10:23:10;94223.03;;;12.27;56.38
68179;BME280;69812;42.632;23.440;2023-12-14T10:25:35;94229.28;;;12.41;55.64
68179;BME280;69812;42.632;23.440;2023-12-14T10:28:01;94209.53;;;12.25;56.34
68179;BME280;69812;42.632;23.440;2023-12-14T10:30:28;94221.47;;;12.09;57.16
68179;BME280;69812;42.632;23.440;2023-12-14T10:32:53;94221.75;;;12.23;56.63
68179;BME280;69812;42.632;23.440;2023-12-14T10:35:19;94220.81;;;12.16;56.37
68179;BME280;69812;42.632;23.440;2023-12-14T10:37:49;94233.38;;;11.86;57.02
68179;BME280;69812;42.632;23.440;2023-12-14T10:40:15;94222.78;;;11.81;56.91
68179;BME280;69812;42.632;23.440;2023-12-14T10:42:44;94237.88;;;11.84;57.75
68179;BME280;69812;42.632;23.440;2023-12-14T10:45:14;94227.28;;;11.87;57.44
68179;BME280;69812;42.632;23.440;2023-12-14T10:47:45;94228.56;;;11.75;58.44
68179;BME280;69812;42.632;23.440;2023-12-14T10:50:11;94238.84;;;11.83;58.44
68179;BME280;69812;42.632;23.440;2023-12-14T10:52:38;94238.84;;;11.25;59.25
68179;BME280;69812;42.632;23.440;2023-12-14T10:55:13;94253.97;;;11.28;60.01
68179;BME280;69812;42.632;23.440;2023-12-14T10:57:40;94282.22;;;11.28;60.31
68179;BME280;69812;42.632;23.440;2023-12-14T11:00:06;94264.53;;;11.25;60.61
68179;BME280;69812;42.632;23.440;2023-12-14T11:02:45;94280.44;;;11.29;60.43
68179;BME280;69812;42.632;23.440;2023-12-14T11:05:12;94275.13;;;11.22;60.20
68179;BME280;69812;42.632;23.440;2023-12-14T11:07:54;94284.47;;;11.23;60.18
68179;BME280;69812;42.632;23.440;2023-12-14T11:10:21;94286.78;;;10.92;61.17
68179;BME280;69812;42.632;23.440;2023-12-14T11:12:59;94301.75;;;11.05;61.77
68179;BME280;69812;42.632;23.440;2023-12-14T11:15:25;94308.09;;;10.84;62.23
68179;BME280;69812;42.632;23.440;2023-12-14T11:20:48;94309.88;;;10.50;66.30
68179;BME280;69812;42.632;23.440;2023-12-14T11:23:26;94334.06;;;10.47;67.52
68179;BME280;69812;42.632;23.440;2023-12-14T11:25:53;94319.00;;;10.26;68.86
68179;BME280;69812;42.632;23.440;2023-12-14T11:28:20;94328.44;;;10.43;69.17
68179;BME280;69812;42.632;23.440;2023-12-14T11:30:46;94326.06;;;10.06;70.27
68179;BME280;69812;42.632;23.440;2023-12-14T11:33:12;94330.78;;;9.93;70.52
68179;BME280;69812;42.632;23.440;2023-12-14T11:35:38;94331.69;;;9.65;70.89
68179;BME280;69812;42.632;23.440;2023-12-14T11:38:04;94337.47;;;9.68;71.10
68179;BME280;69812;42.632;23.440;2023-12-14T11:40:45;94328.63;;;9.44;70.84
68179;BME280;69812;42.632;23.440;2023-12-14T11:43:10;94327.44;;;9.20;71.92
68179;BME280;69812;42.632;23.440;2023-12-14T11:45:40;94326.09;;;9.16;70.64
68179;BME280;69812;42.632;23.440;2023-12-14T11:48:08;94334.59;;;9.17;69.98
68179;BME280;69812;42.632;23.440;2023-12-14T11:50:36;94334.88;;;9.14;69.94
68179;BME280;69812;42.632;23.440;2023-12-14T11:53:02;94341.47;;;9.16;69.79
68179;BME280;69812;42.632;23.440;2023-12-14T11:55:31;94360.75;;;9.11;69.46
68179;BME280;69812;42.632;23.440;2023-12-14T11:57:57;94355.59;;;9.20;69.63
68179;BME280;69812;42.632;23.440;2023-12-14T12:00:24;94354.63;;;9.21;68.63
68179;BME280;69812;42.632;23.440;2023-12-14T12:02:50;94341.41;;;8.80;68.74
68179;BME280;69812;42.632;23.440;2023-12-14T12:05:16;94373.47;;;8.65;70.18
68179;BME280;69812;42.632;23.440;2023-12-14T12:07:44;94364.34;;;8.62;69.84
68179;BME280;69812;42.632;23.440;2023-12-14T12:10:10;94360.63;;;8.37;70.15
68179;BME280;69812;42.632;23.440;2023-12-14T12:12:36;94359.28;;;8.33;70.44
68179;BME280;69812;42.632;23.440;2023-12-14T12:15:03;94361.44;;;8.28;70.69
68179;BME280;69812;42.632;23.440;2023-12-14T12:17:28;94357.16;;;8.19;70.80
68179;BME280;69812;42.632;23.440;2023-12-14T12:19:53;94376.69;;;8.20;71.11
68179;BME280;69812;42.632;23.440;2023-12-14T12:22:21;94363.31;;;8.26;70.50
68179;BME280;69812;42.632;23.440;2023-12-14T12:24:49;94359.59;;;8.20;70.77
68179;BME280;69812;42.632;23.440;2023-12-14T12:27:14;94347.75;;;8.10;71.03
68179;BME280;69812;42.632;23.440;2023-12-14T12:29:39;94363.31;;;8.26;70.61
68179;BME280;69812;42.632;23.440;2023-12-14T12:32:05;94343.84;;;8.15;70.41
68179;BME280;69812;42.632;23.440;2023-12-14T12:34:30;94357.41;;;8.26;69.70
68179;BME280;69812;42.632;23.440;2023-12-14T12:36:55;94368.59;;;8.15;70.11
68179;BME280;69812;42.632;23.440;2023-12-14T12:39:22;94370.09;;;8.08;70.73
68179;BME280;69812;42.632;23.440;2023-12-14T12:41:48;94366.59;;;8.09;70.36
68179;BME280;69812;42.632;23.440;2023-12-14T12:44:13;94375.75;;;8.11;70.43
68179;BME280;69812;42.632;23.440;2023-12-14T12:46:39;94364.69;;;8.11;70.08
68179;BME280;69812;42.632;23.440;2023-12-14T12:49:05;94355.31;;;8.01;70.13